createdAt,value
2023-05-20T00:01:41.537Z,2.88
2023-05-20T00:04:08.467Z,2.88
2023-05-20T00:06:35.315Z,3.20
2023-05-20T00:09:02.049Z,3.42
2023-05-20T00:11:28.890Z,2.95
2023-05-20T00:13:55.637Z,3.60
2023-05-20T00:16:22.411Z,3.17
2023-05-20T00:18:49.100Z,3.10
2023-05-20T00:21:16.056Z,3.08
2023-05-20T00:23:42.797Z,2.90
2023-05-20T00:26:09.630Z,3.65
2023-05-20T00:28:36.689Z,2.80
2023-05-20T00:31:03.424Z,3.25
2023-05-20T00:33:30.376Z,2.70
2023-05-20T00:35:56.989Z,3.22
2023-05-20T00:38:23.654Z,3.00
2023-05-20T00:40:50.325Z,3.88
2023-05-20T00:43:16.978Z,3.22
2023-05-20T00:45:43.821Z,3.95
2023-05-20T00:48:11.134Z,3.03
2023-05-20T00:50:37.961Z,3.35
2023-05-20T00:53:05.776Z,3.10
2023-05-20T00:55:33.081Z,3.05
2023-05-20T00:57:59.854Z,3.00
2023-05-20T01:00:26.579Z,3.03
2023-05-20T01:02:55.286Z,3.13
2023-05-20T01:05:21.992Z,3.40
2023-05-20T01:07:48.793Z,3.17
2023-05-20T01:10:15.564Z,3.13
2023-05-20T01:12:46.410Z,2.97
2023-05-20T01:15:15.579Z,2.97
2023-05-20T01:17:47.384Z,3.63
2023-05-20T01:20:15.394Z,3.05
2023-05-20T01:22:50.161Z,3.05
2023-05-20T01:25:16.944Z,3.40
2023-05-20T01:27:43.969Z,2.72
2023-05-20T01:30:11.380Z,2.85
2023-05-20T01:32:41.869Z,3.20
2023-05-20T01:35:09.680Z,3.40
2023-05-20T01:37:40.463Z,3.90
2023-05-20T01:40:14.075Z,2.95
2023-05-20T01:42:43.006Z,4.03
2023-05-20T01:45:10.403Z,3.13
2023-05-20T01:47:37.193Z,2.95
2023-05-20T01:50:04.383Z,3.15
2023-05-20T01:52:31.850Z,3.13
2023-05-20T01:54:58.594Z,3.75
2023-05-20T01:57:25.424Z,3.38
2023-05-20T01:59:52.194Z,3.55
2023-05-20T02:02:18.935Z,3.40
2023-05-20T02:04:49.861Z,3.35
2023-05-20T02:07:18.834Z,3.67
2023-05-20T02:09:46.344Z,3.72
2023-05-20T02:12:16.824Z,3.78
2023-05-20T02:14:45.524Z,3.90
2023-05-20T02:17:14.629Z,3.65
2023-05-20T02:19:41.285Z,4.20
2023-05-20T02:22:08.145Z,4.25
2023-05-20T02:24:34.958Z,3.75
2023-05-20T02:27:03.316Z,3.88
2023-05-20T02:29:30.377Z,3.88
2023-05-20T02:31:57.016Z,3.67
2023-05-20T02:34:25.938Z,3.45
2023-05-20T02:36:52.904Z,4.13
2023-05-20T02:39:19.618Z,4.18
2023-05-20T02:41:46.435Z,3.65
2023-05-20T02:44:13.136Z,4.30
2023-05-20T02:46:39.945Z,4.20
2023-05-20T02:49:07.070Z,4.10
2023-05-20T02:51:33.809Z,3.92
2023-05-20T02:54:00.622Z,3.78
2023-05-20T02:56:28.644Z,3.95
2023-05-20T02:58:55.394Z,4.57
2023-05-20T03:01:23.395Z,3.72
2023-05-20T03:03:50.096Z,3.80
2023-05-20T03:06:16.899Z,3.70
2023-05-20T03:08:43.589Z,4.55
2023-05-20T03:11:10.340Z,4.50
2023-05-20T03:13:37.037Z,4.45
2023-05-20T03:16:03.940Z,3.80
2023-05-20T03:18:30.790Z,4.13
2023-05-20T03:20:58.372Z,3.80
2023-05-20T03:23:25.208Z,4.35
2023-05-20T03:25:52.168Z,3.83
2023-05-20T03:28:18.923Z,3.47
2023-05-20T03:30:45.751Z,3.95
2023-05-20T03:33:12.488Z,3.63
2023-05-20T03:35:39.114Z,4.28
2023-05-20T03:38:05.959Z,4.10
2023-05-20T03:40:32.698Z,4.35
2023-05-20T03:42:59.417Z,4.38
2023-05-20T03:45:26.181Z,4.03
2023-05-20T03:47:52.846Z,4.63
2023-05-20T03:50:19.660Z,4.43
2023-05-20T03:52:46.427Z,4.22
2023-05-20T03:55:13.161Z,4.88
2023-05-20T03:57:40.025Z,4.60
2023-05-20T04:00:12.058Z,4.47
2023-05-20T04:02:38.971Z,4.50
2023-05-20T04:05:08.540Z,4.53
2023-05-20T04:07:35.883Z,5.53
2023-05-20T04:10:04.077Z,5.18
2023-05-20T04:12:32.253Z,5.05
2023-05-20T04:15:01.413Z,5.03
2023-05-20T04:17:31.565Z,5.65
2023-05-20T04:20:00.134Z,4.75
2023-05-20T04:22:27.498Z,5.07
2023-05-20T04:24:54.680Z,5.15
2023-05-20T04:27:21.691Z,4.88
2023-05-20T04:29:48.501Z,5.18
2023-05-20T04:32:19.961Z,5.05
2023-05-20T04:34:48.061Z,5.15
2023-05-20T04:37:14.767Z,5.75
2023-05-20T04:39:43.496Z,4.70
2023-05-20T04:42:10.177Z,5.27
2023-05-20T04:44:36.965Z,5.80
2023-05-20T04:47:04.472Z,4.95
2023-05-20T04:49:31.173Z,5.03
2023-05-20T04:51:58.485Z,5.72
2023-05-20T04:54:25.246Z,5.38
2023-05-20T04:56:52.165Z,5.88
2023-05-20T04:59:18.932Z,6.28
2023-05-20T05:01:45.603Z,5.15
2023-05-20T05:04:12.296Z,5.68
2023-05-20T05:06:39.016Z,5.57
2023-05-20T05:09:05.812Z,5.43
2023-05-20T05:11:32.544Z,6.65
2023-05-20T05:13:59.280Z,6.15
2023-05-20T05:16:26.209Z,5.45
2023-05-20T05:18:52.984Z,5.38
2023-05-20T05:21:20.190Z,5.90
2023-05-20T05:23:47.082Z,5.75
2023-05-20T05:26:13.810Z,6.25
2023-05-20T05:28:43.428Z,5.22
2023-05-20T05:33:37.053Z,6.93
2023-05-20T05:36:04.894Z,6.20
2023-05-20T05:38:31.690Z,5.57
2023-05-20T05:40:58.569Z,6.13
2023-05-20T05:43:25.405Z,5.78
2023-05-20T05:45:52.263Z,5.40
2023-05-20T05:48:19.025Z,5.38
2023-05-20T05:50:46.630Z,5.97
2023-05-20T05:53:13.390Z,6.50
2023-05-20T05:55:40.084Z,5.63
2023-05-20T05:58:06.793Z,6.65
2023-05-20T06:00:33.924Z,6.55
2023-05-20T06:03:00.735Z,6.00
2023-05-20T06:05:29.293Z,5.40
2023-05-20T06:07:56.595Z,6.50
2023-05-20T06:10:23.447Z,6.68
2023-05-20T06:12:50.320Z,7.63
2023-05-20T06:15:17.112Z,6.90
2023-05-20T06:17:44.259Z,7.13
2023-05-20T06:20:11.512Z,6.68
2023-05-20T06:22:38.184Z,6.25
2023-05-20T06:25:06.377Z,7.40
2023-05-20T06:27:33.280Z,6.82
2023-05-20T06:29:59.992Z,6.97
2023-05-20T06:32:27.585Z,7.00
2023-05-20T06:34:54.248Z,7.55
2023-05-20T06:37:24.379Z,6.97
2023-05-20T06:39:53.894Z,6.32
2023-05-20T06:44:48.281Z,7.00
2023-05-20T06:47:16.432Z,7.15
2023-05-20T06:49:47.148Z,6.80
2023-05-20T06:52:14.472Z,6.65
2023-05-20T06:54:41.730Z,6.75
2023-05-20T06:57:09.242Z,6.90
2023-05-20T06:59:37.399Z,7.20
2023-05-20T07:02:04.559Z,7.28
2023-05-20T07:04:31.276Z,7.00
2023-05-20T07:06:57.911Z,7.43
2023-05-20T07:09:24.783Z,7.30
2023-05-20T07:11:51.493Z,7.20
2023-05-20T07:14:18.246Z,7.93
2023-05-20T07:16:44.998Z,8.00
2023-05-20T07:19:11.784Z,8.50
2023-05-20T07:21:38.582Z,7.78
2023-05-20T07:24:05.562Z,8.27
2023-05-20T07:26:36.269Z,8.48
2023-05-20T07:29:04.297Z,7.75
2023-05-20T07:31:31.393Z,7.60
2023-05-20T07:33:58.334Z,8.10
2023-05-20T07:36:27.576Z,8.13
2023-05-20T07:39:03.008Z,8.30
2023-05-20T07:41:30.993Z,7.45
2023-05-20T07:43:57.840Z,8.38
2023-05-20T07:46:24.552Z,7.90
2023-05-20T07:48:51.233Z,8.02
2023-05-20T07:51:18.804Z,9.25
2023-05-20T07:53:45.666Z,9.95
2023-05-20T07:56:12.407Z,8.55
2023-05-20T07:58:41.902Z,8.15
2023-05-20T08:01:09.377Z,8.95
2023-05-20T08:03:36.976Z,9.40
2023-05-20T08:06:03.989Z,9.23
2023-05-20T08:08:30.824Z,9.25
2023-05-20T08:10:57.589Z,10.35
2023-05-20T08:13:24.794Z,9.50
2023-05-20T08:15:56.120Z,10.50
2023-05-20T08:18:23.302Z,10.32
2023-05-20T08:20:50.238Z,9.00
2023-05-20T08:23:17.095Z,9.07
2023-05-20T08:25:46.692Z,10.10
2023-05-20T08:30:40.224Z,8.93
2023-05-20T08:33:07.737Z,10.85
2023-05-20T08:35:34.594Z,10.15
2023-05-20T08:38:02.062Z,10.52
2023-05-20T08:40:28.783Z,9.65
2023-05-20T08:42:55.980Z,10.65
2023-05-20T08:45:27.846Z,10.52
2023-05-20T08:47:55.088Z,10.30
2023-05-20T08:50:22.174Z,9.38
2023-05-20T08:52:49.237Z,9.90
2023-05-20T08:55:22.799Z,9.48
2023-05-20T08:57:51.347Z,10.32
2023-05-20T09:00:18.366Z,10.25
2023-05-20T09:02:48.077Z,9.80
2023-05-20T09:05:14.974Z,9.48
2023-05-20T09:07:43.365Z,9.48
2023-05-20T09:10:11.170Z,10.50
2023-05-20T09:12:41.001Z,9.95
2023-05-20T09:15:08.535Z,9.50
2023-05-20T09:17:38.914Z,10.60
2023-05-20T09:20:10.860Z,10.75
2023-05-20T09:22:39.376Z,8.98
2023-05-20T09:25:06.534Z,9.20
2023-05-20T09:27:33.772Z,10.05
2023-05-20T09:30:00.459Z,10.38
2023-05-20T09:32:29.008Z,8.77
2023-05-20T09:34:55.963Z,11.40
2023-05-20T09:37:24.914Z,10.65
2023-05-20T09:40:02.067Z,9.73
2023-05-20T09:42:51.488Z,9.18
2023-05-20T09:47:46.493Z,8.98
2023-05-20T09:50:15.157Z,9.45
2023-05-20T09:52:44.404Z,8.60
2023-05-20T09:55:11.453Z,9.02
2023-05-20T09:57:38.355Z,10.00
2023-05-20T10:00:06.511Z,8.07
2023-05-20T10:02:37.046Z,8.25
2023-05-20T10:05:07.652Z,10.82
2023-05-20T10:08:10.805Z,8.50
2023-05-20T10:10:45.107Z,9.02
2023-05-20T10:13:31.946Z,7.70
2023-05-20T10:16:30.843Z,9.18
2023-05-20T10:19:06.662Z,8.50
2023-05-20T10:21:33.581Z,9.45
2023-05-20T10:24:10.491Z,9.32
2023-05-20T10:26:38.636Z,8.55
2023-05-20T10:29:18.541Z,8.20
2023-05-20T10:31:49.772Z,7.75
2023-05-20T10:34:21.503Z,7.72
2023-05-20T10:36:54.104Z,7.47
2023-05-20T10:39:28.514Z,7.55
2023-05-20T10:42:09.445Z,8.15
2023-05-20T10:44:47.075Z,8.63
2023-05-20T10:49:47.603Z,9.93
2023-05-20T10:52:16.645Z,10.27
2023-05-20T10:54:50.965Z,9.60
2023-05-20T10:57:18.726Z,9.57
2023-05-20T10:59:47.466Z,8.80
2023-05-20T11:02:17.085Z,9.38
2023-05-20T11:04:44.442Z,8.32
2023-05-20T11:07:11.287Z,9.65
2023-05-20T11:09:38.043Z,9.00
2023-05-20T11:12:05.170Z,9.10
2023-05-20T11:14:31.973Z,9.23
2023-05-20T11:16:59.873Z,8.82
2023-05-20T11:19:27.636Z,7.70
2023-05-20T11:21:54.704Z,8.65
2023-05-20T11:24:26.918Z,8.20
2023-05-20T11:26:57.946Z,8.30
2023-05-20T11:29:27.240Z,8.10
2023-05-20T11:31:53.955Z,7.07
2023-05-20T11:34:26.153Z,7.63
2023-05-20T11:36:58.404Z,7.75
2023-05-20T11:39:27.444Z,7.70
2023-05-20T11:41:54.189Z,6.93
2023-05-20T11:44:21.285Z,7.50
2023-05-20T11:46:48.585Z,7.75
2023-05-20T11:49:16.088Z,7.60
2023-05-20T11:51:46.325Z,8.48
2023-05-20T11:54:12.963Z,8.88
2023-05-20T11:56:43.374Z,8.73
2023-05-20T11:59:10.844Z,8.50
2023-05-20T12:01:43.078Z,7.97
2023-05-20T12:04:10.616Z,8.88
2023-05-20T12:06:37.597Z,8.15
2023-05-20T12:09:07.172Z,8.95
2023-05-20T12:11:35.680Z,8.25
2023-05-20T12:14:04.005Z,8.73
2023-05-20T12:16:34.232Z,9.07
2023-05-20T12:19:01.576Z,9.90
2023-05-20T12:21:29.793Z,7.97
2023-05-20T12:23:59.911Z,8.55
2023-05-20T12:26:28.448Z,7.70
2023-05-20T12:28:55.552Z,8.65
2023-05-20T12:31:22.240Z,8.68
2023-05-20T12:33:48.947Z,7.80
2023-05-20T12:36:15.640Z,8.18
2023-05-20T12:38:42.258Z,8.32
2023-05-20T12:41:09.059Z,9.30
2023-05-20T12:43:37.453Z,9.55
2023-05-20T12:46:05.083Z,10.27
2023-05-20T12:48:32.060Z,9.43
2023-05-20T12:50:58.851Z,9.98
2023-05-20T12:53:25.577Z,9.77
2023-05-20T12:55:52.440Z,8.98
2023-05-20T12:58:19.156Z,8.52
2023-05-20T13:00:46.096Z,8.75
2023-05-20T13:03:13.007Z,10.18
2023-05-20T13:05:39.717Z,10.45
2023-05-20T13:08:06.552Z,9.02
2023-05-20T13:10:33.448Z,8.75
2023-05-20T13:13:00.315Z,8.65
2023-05-20T13:15:27.006Z,8.23
2023-05-20T13:17:54.373Z,9.05
2023-05-20T13:20:21.548Z,8.88
2023-05-20T13:22:50.117Z,9.35
2023-05-20T13:25:17.317Z,9.13
2023-05-20T13:27:44.115Z,9.70
2023-05-20T13:30:11.203Z,8.73
2023-05-20T13:32:38.112Z,8.75
2023-05-20T13:35:05.290Z,9.57
2023-05-20T13:37:32.141Z,10.00
2023-05-20T13:39:58.946Z,9.75
2023-05-20T13:42:25.693Z,10.43
2023-05-20T13:44:52.537Z,10.50
2023-05-20T13:47:19.363Z,10.18
2023-05-20T13:49:46.123Z,10.35
2023-05-20T13:52:12.900Z,9.73
2023-05-20T13:54:40.100Z,9.23
2023-05-20T13:57:08.021Z,11.05
2023-05-20T13:59:35.292Z,11.00
2023-05-20T14:02:02.584Z,10.45
2023-05-20T14:04:31.249Z,10.48
2023-05-20T14:06:59.270Z,10.27
2023-05-20T14:09:26.285Z,11.05
2023-05-20T14:11:53.035Z,10.65
2023-05-20T14:14:19.906Z,9.57
2023-05-20T14:16:47.185Z,9.60
2023-05-20T14:19:14.070Z,10.30
2023-05-20T14:21:40.840Z,9.95
2023-05-20T14:24:07.536Z,10.50
2023-05-20T14:26:34.582Z,9.98
2023-05-20T14:29:01.807Z,9.85
2023-05-20T14:31:28.622Z,11.18
2023-05-20T14:33:55.428Z,10.30
2023-05-20T14:36:22.362Z,9.80
2023-05-20T14:38:49.797Z,11.23
2023-05-20T14:41:16.976Z,11.07
2023-05-20T14:43:43.764Z,10.40
2023-05-20T14:46:11.055Z,10.35
2023-05-20T14:48:37.841Z,9.77
2023-05-20T14:51:05.054Z,10.40
2023-05-20T14:53:31.777Z,9.75
2023-05-20T14:55:58.458Z,10.48
2023-05-20T14:58:25.519Z,10.50
2023-05-20T15:00:55.252Z,11.65
2023-05-20T15:03:24.130Z,10.68
2023-05-20T15:05:51.047Z,10.73
2023-05-20T15:08:17.796Z,11.20
2023-05-20T15:10:44.719Z,11.20
2023-05-20T15:13:11.726Z,10.77
2023-05-20T15:15:38.430Z,12.23
2023-05-20T15:18:05.207Z,10.38
2023-05-20T15:20:32.040Z,11.27
2023-05-20T15:23:00.286Z,11.82
2023-05-20T15:25:27.660Z,11.35
2023-05-20T15:27:54.326Z,10.70
2023-05-20T15:30:22.811Z,11.85
2023-05-20T15:32:49.728Z,10.45
2023-05-20T15:35:16.751Z,11.02
2023-05-20T15:37:43.421Z,12.02
2023-05-20T15:40:11.366Z,11.30
2023-05-20T15:42:37.985Z,10.82
2023-05-20T15:45:04.901Z,12.00
2023-05-20T15:47:31.666Z,11.88
2023-05-20T15:49:58.384Z,12.13
2023-05-20T15:52:25.140Z,12.57
2023-05-20T15:54:51.800Z,11.45
2023-05-20T15:57:18.696Z,11.43
2023-05-20T15:59:45.538Z,12.32
2023-05-20T16:02:12.274Z,11.77
2023-05-20T16:04:39.057Z,10.43
2023-05-20T16:07:05.748Z,11.13
2023-05-20T16:09:32.451Z,11.88
2023-05-20T16:11:59.200Z,11.30
2023-05-20T16:14:25.933Z,10.55
2023-05-20T16:16:52.597Z,11.48
2023-05-20T16:19:19.403Z,11.18
2023-05-20T16:21:46.438Z,11.48
2023-05-20T16:24:13.260Z,12.38
2023-05-20T16:26:40.122Z,12.25
2023-05-20T16:29:06.924Z,12.25
2023-05-20T16:31:33.690Z,10.88
2023-05-20T16:34:00.340Z,11.85
2023-05-20T16:36:27.585Z,10.82
2023-05-20T16:38:54.300Z,11.48
2023-05-20T16:41:21.508Z,11.48
2023-05-20T16:43:48.266Z,11.85
2023-05-20T16:46:15.063Z,11.70
2023-05-20T16:48:42.732Z,12.13
2023-05-20T16:51:09.387Z,11.70
2023-05-20T16:53:36.353Z,12.00
2023-05-20T16:56:03.571Z,12.15
2023-05-20T16:58:30.249Z,11.75
2023-05-20T17:00:56.932Z,12.40
2023-05-20T17:03:23.811Z,11.95
2023-05-20T17:05:50.478Z,12.57
2023-05-20T17:08:18.178Z,11.90
2023-05-20T17:10:45.170Z,12.05
2023-05-20T17:13:11.923Z,12.73
2023-05-20T17:15:38.646Z,11.98
2023-05-20T17:18:05.525Z,11.77
2023-05-20T17:20:33.038Z,11.40
2023-05-20T17:23:00.135Z,12.63
2023-05-20T17:25:26.806Z,11.98
2023-05-20T17:27:53.523Z,12.13
2023-05-20T17:30:20.503Z,11.93
2023-05-20T17:32:47.340Z,12.85
2023-05-20T17:35:14.209Z,12.55
2023-05-20T17:37:41.291Z,13.25
2023-05-20T17:40:08.563Z,12.45
2023-05-20T17:42:35.593Z,13.65
2023-05-20T17:45:02.294Z,13.15
2023-05-20T17:47:28.959Z,14.80
2023-05-20T17:49:55.981Z,14.63
2023-05-20T17:52:22.615Z,14.63
2023-05-20T17:54:49.481Z,13.73
2023-05-20T17:57:16.249Z,14.07
2023-05-20T17:59:45.563Z,15.60
2023-05-20T18:02:12.567Z,14.40
2023-05-20T18:04:39.317Z,14.23
2023-05-20T18:07:07.440Z,15.90
2023-05-20T18:09:34.301Z,15.07
2023-05-20T18:12:01.151Z,15.52
2023-05-20T18:14:27.755Z,15.55
2023-05-20T18:16:54.769Z,15.75
2023-05-20T18:19:21.667Z,15.52
2023-05-20T18:21:48.447Z,15.52
2023-05-20T18:24:16.591Z,15.45
2023-05-20T18:26:43.567Z,16.08
2023-05-20T18:29:12.271Z,16.40
2023-05-20T18:31:40.799Z,15.95
2023-05-20T18:36:35.902Z,15.43
2023-05-20T18:39:02.718Z,15.57
2023-05-20T18:41:45.529Z,16.45
2023-05-20T18:44:17.638Z,15.85
2023-05-20T18:46:44.950Z,16.55
2023-05-20T18:49:11.863Z,17.10
2023-05-20T18:51:39.266Z,17.45
2023-05-20T18:54:06.181Z,17.25
2023-05-20T18:56:33.459Z,17.27
2023-05-20T18:59:00.154Z,16.92
2023-05-20T19:01:27.423Z,17.88
2023-05-20T19:03:54.179Z,17.42
2023-05-20T19:06:21.791Z,17.77
2023-05-20T19:08:49.416Z,17.08
2023-05-20T19:11:16.230Z,17.38
2023-05-20T19:13:42.923Z,17.67
2023-05-20T19:16:09.882Z,18.67
2023-05-20T19:18:36.582Z,18.33
2023-05-20T19:21:03.516Z,18.35
2023-05-20T19:23:30.553Z,18.13
2023-05-20T19:25:57.251Z,20.52
2023-05-20T19:28:24.036Z,17.58
2023-05-20T19:30:50.881Z,18.90
2023-05-20T19:33:17.707Z,20.27
2023-05-20T19:35:44.356Z,19.13
2023-05-20T19:38:11.093Z,19.52
2023-05-20T19:40:37.822Z,19.25
2023-05-20T19:43:04.748Z,20.92
2023-05-20T19:45:32.235Z,20.17
2023-05-20T19:47:59.000Z,19.85
2023-05-20T19:50:25.710Z,20.20
2023-05-20T19:52:52.398Z,20.23
2023-05-20T19:55:19.113Z,19.92
2023-05-20T19:57:47.730Z,19.38
2023-05-20T20:00:15.446Z,19.23
2023-05-20T20:02:42.258Z,18.83
2023-05-20T20:05:09.873Z,19.30
2023-05-20T20:07:36.574Z,18.90
2023-05-20T20:10:03.776Z,18.92
2023-05-20T20:12:30.483Z,18.75
2023-05-20T20:14:57.257Z,19.52
2023-05-20T20:17:24.067Z,20.98
2023-05-20T20:19:53.211Z,20.38
2023-05-20T20:22:20.122Z,19.30
2023-05-20T20:24:47.030Z,31.20
2023-05-20T20:27:13.785Z,31.77
2023-05-20T20:29:43.302Z,36.88
2023-05-20T20:32:10.088Z,21.05
2023-05-20T20:34:37.348Z,20.48
2023-05-20T20:37:04.238Z,19.77
2023-05-20T20:39:31.084Z,18.42
2023-05-20T20:41:58.746Z,19.23
2023-05-20T20:44:25.578Z,19.83
2023-05-20T20:46:52.676Z,19.85
2023-05-20T20:49:20.301Z,18.88
2023-05-20T20:51:48.566Z,20.20
2023-05-20T20:54:15.604Z,18.75
2023-05-20T20:56:45.354Z,20.02
2023-05-20T20:59:13.531Z,20.08
2023-05-20T21:01:44.885Z,19.85
2023-05-20T21:04:13.844Z,20.40
2023-05-20T21:06:47.157Z,20.70
2023-05-20T21:09:14.524Z,20.75
2023-05-20T21:11:45.851Z,20.65
2023-05-20T21:14:13.175Z,19.85
2023-05-20T21:16:40.242Z,20.73
2023-05-20T21:19:07.034Z,20.27
2023-05-20T21:21:33.965Z,19.60
2023-05-20T21:24:00.726Z,19.23
2023-05-20T21:26:27.460Z,20.27
2023-05-20T21:28:54.133Z,18.65
2023-05-20T21:31:20.966Z,19.75
2023-05-20T21:33:47.724Z,18.90
2023-05-20T21:36:14.450Z,20.48
2023-05-20T21:38:41.106Z,18.77
2023-05-20T21:41:08.163Z,20.35
2023-05-20T21:43:35.896Z,19.00
2023-05-20T21:46:02.807Z,19.13
2023-05-20T21:48:29.518Z,18.95
2023-05-20T21:50:56.251Z,20.77
2023-05-20T21:53:22.925Z,18.40
2023-05-20T21:55:49.744Z,19.13
2023-05-20T21:58:16.468Z,20.30
2023-05-20T22:00:43.164Z,18.85
2023-05-20T22:03:10.067Z,19.80
2023-05-20T22:05:37.217Z,18.73
2023-05-20T22:08:04.541Z,19.83
2023-05-20T22:10:33.778Z,19.65
2023-05-20T22:13:02.025Z,19.10
2023-05-20T22:15:28.927Z,18.38
2023-05-20T22:17:55.622Z,19.13
2023-05-20T22:20:22.586Z,18.10
2023-05-20T22:22:49.557Z,18.30
2023-05-20T22:25:17.277Z,19.35
2023-05-20T22:27:44.132Z,18.35
2023-05-20T22:30:12.321Z,17.98
2023-05-20T22:32:39.288Z,18.15
2023-05-20T22:35:06.715Z,19.05
2023-05-20T22:37:33.454Z,18.25
2023-05-20T22:40:00.283Z,18.88
2023-05-20T22:42:27.045Z,18.00
2023-05-20T22:44:53.652Z,20.67
2023-05-20T22:47:20.309Z,18.25
2023-05-20T22:49:46.938Z,18.10
2023-05-20T22:52:13.589Z,19.17
2023-05-20T22:54:40.326Z,17.65
2023-05-20T22:57:07.584Z,18.08
2023-05-20T22:59:34.275Z,17.10
2023-05-20T23:02:01.808Z,18.05
2023-05-20T23:04:28.589Z,18.08
2023-05-20T23:06:56.751Z,18.13
2023-05-20T23:09:24.550Z,17.20
2023-05-20T23:11:51.157Z,17.48
2023-05-20T23:14:19.875Z,17.13
2023-05-20T23:16:46.632Z,18.67
2023-05-20T23:19:13.398Z,16.23
2023-05-20T23:21:40.604Z,17.42
2023-05-20T23:24:07.263Z,18.30
2023-05-20T23:26:34.493Z,18.60
2023-05-20T23:29:01.614Z,17.42
2023-05-20T23:31:29.809Z,17.92
2023-05-20T23:33:59.731Z,18.13
2023-05-20T23:36:28.999Z,17.30
2023-05-20T23:38:56.378Z,16.35
2023-05-20T23:41:23.596Z,16.88
2023-05-20T23:43:50.406Z,17.67
2023-05-20T23:46:18.510Z,15.55
2023-05-20T23:48:48.312Z,17.17
2023-05-20T23:53:44.094Z,16.52
2023-05-20T23:56:11.483Z,16.98
2023-05-20T23:58:38.212Z,17.90
